sensor_id;sensor_type;location;lat;lon;timestamp;P1;durP1;ratioP1;P2;durP2;ratioP2
72720;SDS011;60835;50.974;10.322;2023-10-19T00:00:34;16.38;;;9.02;;
72720;SDS011;60835;50.974;10.322;2023-10-19T00:03:03;19.15;;;9.10;;
72720;SDS011;60835;50.974;10.322;2023-10-19T00:05:30;14.98;;;8.70;;
72720;SDS011;60835;50.974;10.322;2023-10-19T00:07:58;13.70;;;8.20;;
72720;SDS011;60835;50.974;10.322;2023-10-19T00:10:26;17.23;;;9.15;;
72720;SDS011;60835;50.974;10.322;2023-10-19T00:12:59;21.08;;;10.25;;
72720;SDS011;60835;50.974;10.322;2023-10-19T00:15:31;17.15;;;9.43;;
72720;SDS011;60835;50.974;10.322;2023-10-19T00:18:00;20.25;;;8.90;;
72720;SDS011;60835;50.974;10.322;2023-10-19T00:20:47;15.65;;;8.82;;
72720;SDS011;60835;50.974;10.322;2023-10-19T00:23:19;14.70;;;8.70;;
72720;SDS011;60835;50.974;10.322;2023-10-19T00:25:59;19.58;;;9.13;;
72720;SDS011;60835;50.974;10.322;2023-10-19T00:28:31;16.90;;;9.00;;
72720;SDS011;60835;50.974;10.322;2023-10-19T00:31:01;16.80;;;9.85;;
72720;SDS011;60835;50.974;10.322;2023-10-19T00:33:34;18.23;;;8.65;;
72720;SDS011;60835;50.974;10.322;2023-10-19T00:36:08;17.30;;;9.05;;
72720;SDS011;60835;50.974;10.322;2023-10-19T00:38:36;16.23;;;8.88;;
72720;SDS011;60835;50.974;10.322;2023-10-19T00:41:03;18.90;;;9.43;;
72720;SDS011;60835;50.974;10.322;2023-10-19T00:43:33;17.67;;;9.48;;
72720;SDS011;60835;50.974;10.322;2023-10-19T00:48:53;16.60;;;8.65;;
72720;SDS011;60835;50.974;10.322;2023-10-19T00:51:28;16.67;;;9.75;;
72720;SDS011;60835;50.974;10.322;2023-10-19T00:54:12;17.83;;;9.13;;
72720;SDS011;60835;50.974;10.322;2023-10-19T00:56:43;18.67;;;9.60;;
72720;SDS011;60835;50.974;10.322;2023-10-19T00:59:16;17.02;;;9.32;;
72720;SDS011;60835;50.974;10.322;2023-10-19T01:01:50;17.30;;;9.70;;
72720;SDS011;60835;50.974;10.322;2023-10-19T01:04:24;18.30;;;9.05;;
72720;SDS011;60835;50.974;10.322;2023-10-19T01:06:51;16.23;;;9.63;;
72720;SDS011;60835;50.974;10.322;2023-10-19T01:09:30;18.25;;;9.63;;
72720;SDS011;60835;50.974;10.322;2023-10-19T01:12:01;18.85;;;10.05;;
72720;SDS011;60835;50.974;10.322;2023-10-19T01:15:04;18.48;;;9.20;;
72720;SDS011;60835;50.974;10.322;2023-10-19T01:17:45;19.55;;;9.88;;
72720;SDS011;60835;50.974;10.322;2023-10-19T01:20:14;18.63;;;9.27;;
72720;SDS011;60835;50.974;10.322;2023-10-19T01:25:20;22.00;;;9.98;;
72720;SDS011;60835;50.974;10.322;2023-10-19T01:28:08;18.25;;;9.95;;
72720;SDS011;60835;50.974;10.322;2023-10-19T01:30:36;18.20;;;9.98;;
72720;SDS011;60835;50.974;10.322;2023-10-19T01:33:04;19.45;;;10.18;;
72720;SDS011;60835;50.974;10.322;2023-10-19T01:35:34;18.70;;;9.32;;
72720;SDS011;60835;50.974;10.322;2023-10-19T01:38:20;17.80;;;9.45;;
72720;SDS011;60835;50.974;10.322;2023-10-19T01:40:46;15.40;;;9.35;;
72720;SDS011;60835;50.974;10.322;2023-10-19T01:43:15;18.45;;;9.25;;
72720;SDS011;60835;50.974;10.322;2023-10-19T01:45:47;18.55;;;10.10;;
72720;SDS011;60835;50.974;10.322;2023-10-19T01:48:14;19.05;;;9.52;;
72720;SDS011;60835;50.974;10.322;2023-10-19T01:50:42;17.58;;;9.50;;
72720;SDS011;60835;50.974;10.322;2023-10-19T01:53:09;17.38;;;9.85;;
72720;SDS011;60835;50.974;10.322;2023-10-19T01:55:42;16.27;;;9.27;;
72720;SDS011;60835;50.974;10.322;2023-10-19T01:58:10;19.40;;;10.20;;
72720;SDS011;60835;50.974;10.322;2023-10-19T02:00:37;17.77;;;10.20;;
72720;SDS011;60835;50.974;10.322;2023-10-19T02:03:07;19.98;;;10.35;;
72720;SDS011;60835;50.974;10.322;2023-10-19T02:05:34;20.80;;;10.23;;
72720;SDS011;60835;50.974;10.322;2023-10-19T02:08:08;18.80;;;10.18;;
72720;SDS011;60835;50.974;10.322;2023-10-19T02:10:35;15.95;;;9.30;;
72720;SDS011;60835;50.974;10.322;2023-10-19T02:13:03;17.58;;;9.80;;
72720;SDS011;60835;50.974;10.322;2023-10-19T02:15:33;20.60;;;10.68;;
72720;SDS011;60835;50.974;10.322;2023-10-19T02:18:03;17.60;;;9.80;;
72720;SDS011;60835;50.974;10.322;2023-10-19T02:20:30;20.30;;;10.38;;
72720;SDS011;60835;50.974;10.322;2023-10-19T02:23:09;18.65;;;10.02;;
72720;SDS011;60835;50.974;10.322;2023-10-19T02:25:36;23.85;;;10.75;;
72720;SDS011;60835;50.974;10.322;2023-10-19T02:28:04;18.70;;;10.20;;
72720;SDS011;60835;50.974;10.322;2023-10-19T02:30:33;18.70;;;10.88;;
72720;SDS011;60835;50.974;10.322;2023-10-19T02:33:00;18.33;;;10.27;;
72720;SDS011;60835;50.974;10.322;2023-10-19T02:35:29;18.27;;;10.60;;
72720;SDS011;60835;50.974;10.322;2023-10-19T02:37:56;20.85;;;10.40;;
72720;SDS011;60835;50.974;10.322;2023-10-19T02:40:24;23.38;;;10.95;;
72720;SDS011;60835;50.974;10.322;2023-10-19T02:42:51;20.38;;;10.77;;
72720;SDS011;60835;50.974;10.322;2023-10-19T02:45:19;19.42;;;10.93;;
72720;SDS011;60835;50.974;10.322;2023-10-19T02:47:46;19.75;;;10.27;;
72720;SDS011;60835;50.974;10.322;2023-10-19T02:50:12;23.70;;;10.98;;
72720;SDS011;60835;50.974;10.322;2023-10-19T02:52:42;19.02;;;10.52;;
72720;SDS011;60835;50.974;10.322;2023-10-19T02:55:11;19.35;;;10.63;;
72720;SDS011;60835;50.974;10.322;2023-10-19T02:57:38;19.30;;;10.65;;
72720;SDS011;60835;50.974;10.322;2023-10-19T03:00:05;18.77;;;10.85;;
72720;SDS011;60835;50.974;10.322;2023-10-19T03:02:38;23.02;;;10.88;;
72720;SDS011;60835;50.974;10.322;2023-10-19T03:05:06;20.23;;;10.95;;
72720;SDS011;60835;50.974;10.322;2023-10-19T03:07:43;18.13;;;10.02;;
72720;SDS011;60835;50.974;10.322;2023-10-19T03:10:10;22.10;;;10.38;;
72720;SDS011;60835;50.974;10.322;2023-10-19T03:12:52;20.75;;;11.05;;
72720;SDS011;60835;50.974;10.322;2023-10-19T03:15:19;18.52;;;10.27;;
72720;SDS011;60835;50.974;10.322;2023-10-19T03:17:47;23.88;;;11.32;;
72720;SDS011;60835;50.974;10.322;2023-10-19T03:20:15;19.40;;;10.65;;
72720;SDS011;60835;50.974;10.322;2023-10-19T03:22:44;20.88;;;10.98;;
72720;SDS011;60835;50.974;10.322;2023-10-19T03:25:12;21.63;;;11.57;;
72720;SDS011;60835;50.974;10.322;2023-10-19T03:27:58;17.15;;;10.18;;
72720;SDS011;60835;50.974;10.322;2023-10-19T03:30:32;27.95;;;12.63;;
72720;SDS011;60835;50.974;10.322;2023-10-19T03:33:05;22.63;;;12.05;;
72720;SDS011;60835;50.974;10.322;2023-10-19T03:35:35;22.45;;;10.35;;
72720;SDS011;60835;50.974;10.322;2023-10-19T03:38:04;21.80;;;10.98;;
72720;SDS011;60835;50.974;10.322;2023-10-19T03:40:45;21.17;;;10.63;;
72720;SDS011;60835;50.974;10.322;2023-10-19T03:43:18;19.10;;;9.88;;
72720;SDS011;60835;50.974;10.322;2023-10-19T03:45:48;22.92;;;11.00;;
72720;SDS011;60835;50.974;10.322;2023-10-19T03:48:19;20.90;;;10.13;;
72720;SDS011;60835;50.974;10.322;2023-10-19T03:51:00;16.77;;;9.32;;
72720;SDS011;60835;50.974;10.322;2023-10-19T03:53:29;18.42;;;9.73;;
72720;SDS011;60835;50.974;10.322;2023-10-19T03:55:56;19.33;;;9.60;;
72720;SDS011;60835;50.974;10.322;2023-10-19T03:58:23;16.88;;;9.43;;
72720;SDS011;60835;50.974;10.322;2023-10-19T04:00:50;18.50;;;9.70;;
72720;SDS011;60835;50.974;10.322;2023-10-19T04:03:17;21.30;;;10.32;;
72720;SDS011;60835;50.974;10.322;2023-10-19T04:05:43;18.27;;;9.18;;
72720;SDS011;60835;50.974;10.322;2023-10-19T04:08:13;15.32;;;8.77;;
72720;SDS011;60835;50.974;10.322;2023-10-19T04:10:47;14.07;;;8.05;;
72720;SDS011;60835;50.974;10.322;2023-10-19T04:13:34;9.52;;;5.65;;
72720;SDS011;60835;50.974;10.322;2023-10-19T04:16:02;15.02;;;7.65;;
72720;SDS011;60835;50.974;10.322;2023-10-19T04:18:29;11.75;;;6.68;;
72720;SDS011;60835;50.974;10.322;2023-10-19T04:20:56;13.10;;;6.57;;
72720;SDS011;60835;50.974;10.322;2023-10-19T04:23:24;13.27;;;7.68;;
72720;SDS011;60835;50.974;10.322;2023-10-19T04:25:55;12.10;;;7.40;;
72720;SDS011;60835;50.974;10.322;2023-10-19T04:28:23;13.00;;;7.05;;
72720;SDS011;60835;50.974;10.322;2023-10-19T04:31:16;7.93;;;4.65;;
72720;SDS011;60835;50.974;10.322;2023-10-19T04:33:45;5.68;;;3.90;;
72720;SDS011;60835;50.974;10.322;2023-10-19T04:36:13;7.43;;;4.60;;
72720;SDS011;60835;50.974;10.322;2023-10-19T04:38:40;5.82;;;4.38;;
72720;SDS011;60835;50.974;10.322;2023-10-19T04:41:07;5.20;;;3.55;;
72720;SDS011;60835;50.974;10.322;2023-10-19T04:43:35;4.28;;;3.22;;
72720;SDS011;60835;50.974;10.322;2023-10-19T04:46:06;5.40;;;3.20;;
72720;SDS011;60835;50.974;10.322;2023-10-19T04:48:40;6.65;;;3.20;;
72720;SDS011;60835;50.974;10.322;2023-10-19T04:51:08;4.30;;;3.13;;
72720;SDS011;60835;50.974;10.322;2023-10-19T04:53:36;4.35;;;3.08;;
72720;SDS011;60835;50.974;10.322;2023-10-19T04:56:06;5.45;;;2.97;;
72720;SDS011;60835;50.974;10.322;2023-10-19T04:58:35;4.22;;;3.17;;
72720;SDS011;60835;50.974;10.322;2023-10-19T05:01:03;3.78;;;2.70;;
72720;SDS011;60835;50.974;10.322;2023-10-19T05:03:30;6.43;;;3.45;;
72720;SDS011;60835;50.974;10.322;2023-10-19T05:05:57;5.28;;;3.03;;
72720;SDS011;60835;50.974;10.322;2023-10-19T05:08:24;6.68;;;3.72;;
72720;SDS011;60835;50.974;10.322;2023-10-19T05:10:52;4.85;;;3.45;;
72720;SDS011;60835;50.974;10.322;2023-10-19T05:13:21;7.97;;;4.80;;
72720;SDS011;60835;50.974;10.322;2023-10-19T05:15:50;8.10;;;4.32;;
72720;SDS011;60835;50.974;10.322;2023-10-19T05:18:16;4.82;;;3.60;;
72720;SDS011;60835;50.974;10.322;2023-10-19T05:20:43;5.07;;;3.35;;
72720;SDS011;60835;50.974;10.322;2023-10-19T05:23:10;5.40;;;3.90;;
72720;SDS011;60835;50.974;10.322;2023-10-19T05:25:36;5.10;;;3.60;;
72720;SDS011;60835;50.974;10.322;2023-10-19T05:28:04;9.02;;;4.75;;
72720;SDS011;60835;50.974;10.322;2023-10-19T05:30:35;6.40;;;4.25;;
72720;SDS011;60835;50.974;10.322;2023-10-19T05:33:03;10.98;;;5.45;;
72720;SDS011;60835;50.974;10.322;2023-10-19T05:35:29;5.55;;;3.50;;
72720;SDS011;60835;50.974;10.322;2023-10-19T05:37:56;6.03;;;4.47;;
72720;SDS011;60835;50.974;10.322;2023-10-19T05:40:23;5.78;;;3.95;;
72720;SDS011;60835;50.974;10.322;2023-10-19T05:42:56;8.35;;;4.55;;
72720;SDS011;60835;50.974;10.322;2023-10-19T05:45:24;12.18;;;6.50;;
72720;SDS011;60835;50.974;10.322;2023-10-19T05:47:51;7.85;;;4.90;;
72720;SDS011;60835;50.974;10.322;2023-10-19T05:50:17;6.30;;;4.28;;
72720;SDS011;60835;50.974;10.322;2023-10-19T05:52:44;5.85;;;4.13;;
72720;SDS011;60835;50.974;10.322;2023-10-19T05:55:10;9.43;;;5.15;;
72720;SDS011;60835;50.974;10.322;2023-10-19T05:57:37;7.00;;;4.25;;
72720;SDS011;60835;50.974;10.322;2023-10-19T06:00:10;6.47;;;4.13;;
72720;SDS011;60835;50.974;10.322;2023-10-19T06:02:45;6.07;;;4.10;;
72720;SDS011;60835;50.974;10.322;2023-10-19T06:05:13;6.55;;;4.25;;
72720;SDS011;60835;50.974;10.322;2023-10-19T06:07:46;8.27;;;4.22;;
72720;SDS011;60835;50.974;10.322;2023-10-19T06:10:16;6.68;;;4.43;;
72720;SDS011;60835;50.974;10.322;2023-10-19T06:12:47;6.75;;;4.22;;
72720;SDS011;60835;50.974;10.322;2023-10-19T06:15:17;7.22;;;4.57;;
72720;SDS011;60835;50.974;10.322;2023-10-19T06:17:45;7.07;;;4.90;;
72720;SDS011;60835;50.974;10.322;2023-10-19T06:20:12;10.52;;;5.20;;
72720;SDS011;60835;50.974;10.322;2023-10-19T06:22:51;9.65;;;5.47;;
72720;SDS011;60835;50.974;10.322;2023-10-19T06:25:19;9.52;;;5.07;;
72720;SDS011;60835;50.974;10.322;2023-10-19T06:27:47;9.10;;;5.18;;
72720;SDS011;60835;50.974;10.322;2023-10-19T06:30:15;7.70;;;5.10;;
72720;SDS011;60835;50.974;10.322;2023-10-19T06:32:48;10.85;;;5.40;;
72720;SDS011;60835;50.974;10.322;2023-10-19T06:35:20;8.07;;;5.05;;
72720;SDS011;60835;50.974;10.322;2023-10-19T06:37:47;10.35;;;5.50;;
72720;SDS011;60835;50.974;10.322;2023-10-19T06:40:15;8.00;;;5.25;;
72720;SDS011;60835;50.974;10.322;2023-10-19T06:42:43;9.25;;;5.15;;
72720;SDS011;60835;50.974;10.322;2023-10-19T06:45:14;8.45;;;5.18;;
72720;SDS011;60835;50.974;10.322;2023-10-19T06:47:42;8.88;;;5.22;;
72720;SDS011;60835;50.974;10.322;2023-10-19T06:50:11;10.38;;;5.95;;
72720;SDS011;60835;50.974;10.322;2023-10-19T06:52:39;9.38;;;5.13;;
72720;SDS011;60835;50.974;10.322;2023-10-19T06:55:07;7.43;;;5.00;;
72720;SDS011;60835;50.974;10.322;2023-10-19T06:57:40;9.00;;;5.13;;
72720;SDS011;60835;50.974;10.322;2023-10-19T07:00:12;9.32;;;6.00;;
72720;SDS011;60835;50.974;10.322;2023-10-19T07:02:41;9.82;;;5.57;;
72720;SDS011;60835;50.974;10.322;2023-10-19T07:05:10;9.73;;;5.30;;
72720;SDS011;60835;50.974;10.322;2023-10-19T07:07:39;8.40;;;5.60;;
72720;SDS011;60835;50.974;10.322;2023-10-19T07:10:09;7.43;;;4.75;;
72720;SDS011;60835;50.974;10.322;2023-10-19T07:12:39;9.48;;;5.75;;
72720;SDS011;60835;50.974;10.322;2023-10-19T07:15:08;7.03;;;4.55;;
72720;SDS011;60835;50.974;10.322;2023-10-19T07:17:43;7.50;;;5.53;;
72720;SDS011;60835;50.974;10.322;2023-10-19T07:20:11;9.27;;;5.22;;
72720;SDS011;60835;50.974;10.322;2023-10-19T07:22:56;8.13;;;5.05;;
72720;SDS011;60835;50.974;10.322;2023-10-19T07:25:24;8.25;;;4.75;;
72720;SDS011;60835;50.974;10.322;2023-10-19T07:27:52;7.80;;;5.20;;
72720;SDS011;60835;50.974;10.322;2023-10-19T07:30:20;7.25;;;4.70;;
72720;SDS011;60835;50.974;10.322;2023-10-19T07:32:49;8.50;;;5.32;;
72720;SDS011;60835;50.974;10.322;2023-10-19T07:35:25;7.45;;;5.15;;
72720;SDS011;60835;50.974;10.322;2023-10-19T07:38:01;7.70;;;5.20;;
72720;SDS011;60835;50.974;10.322;2023-10-19T07:40:29;8.00;;;5.38;;
72720;SDS011;60835;50.974;10.322;2023-10-19T07:42:56;11.30;;;5.65;;
72720;SDS011;60835;50.974;10.322;2023-10-19T07:45:23;10.90;;;5.75;;
72720;SDS011;60835;50.974;10.322;2023-10-19T07:47:50;7.25;;;4.53;;
72720;SDS011;60835;50.974;10.322;2023-10-19T07:50:17;8.70;;;5.97;;
72720;SDS011;60835;50.974;10.322;2023-10-19T07:52:47;10.40;;;5.57;;
72720;SDS011;60835;50.974;10.322;2023-10-19T07:55:17;7.40;;;4.72;;
72720;SDS011;60835;50.974;10.322;2023-10-19T07:57:45;10.32;;;6.05;;
72720;SDS011;60835;50.974;10.322;2023-10-19T08:00:12;6.93;;;5.03;;
72720;SDS011;60835;50.974;10.322;2023-10-19T08:02:41;7.38;;;5.30;;
72720;SDS011;60835;50.974;10.322;2023-10-19T08:05:08;12.23;;;5.47;;
72720;SDS011;60835;50.974;10.322;2023-10-19T08:07:38;10.30;;;6.10;;
72720;SDS011;60835;50.974;10.322;2023-10-19T08:10:06;11.00;;;6.07;;
72720;SDS011;60835;50.974;10.322;2023-10-19T08:12:36;11.07;;;6.70;;
72720;SDS011;60835;50.974;10.322;2023-10-19T08:15:08;13.38;;;6.05;;
72720;SDS011;60835;50.974;10.322;2023-10-19T08:17:37;12.45;;;6.20;;
72720;SDS011;60835;50.974;10.322;2023-10-19T08:20:08;8.40;;;5.55;;
72720;SDS011;60835;50.974;10.322;2023-10-19T08:22:44;9.15;;;5.10;;
72720;SDS011;60835;50.974;10.322;2023-10-19T08:25:14;7.07;;;5.03;;
72720;SDS011;60835;50.974;10.322;2023-10-19T08:27:42;8.50;;;5.60;;
72720;SDS011;60835;50.974;10.322;2023-10-19T08:30:16;8.95;;;5.43;;
72720;SDS011;60835;50.974;10.322;2023-10-19T08:32:47;9.48;;;6.38;;
72720;SDS011;60835;50.974;10.322;2023-10-19T08:35:18;7.55;;;5.55;;
72720;SDS011;60835;50.974;10.322;2023-10-19T08:37:53;17.83;;;9.15;;
72720;SDS011;60835;50.974;10.322;2023-10-19T08:40:20;13.38;;;8.43;;
72720;SDS011;60835;50.974;10.322;2023-10-19T08:42:50;10.38;;;6.40;;
72720;SDS011;60835;50.974;10.322;2023-10-19T08:45:17;9.07;;;5.82;;
72720;SDS011;60835;50.974;10.322;2023-10-19T08:47:59;10.43;;;7.13;;
72720;SDS011;60835;50.974;10.322;2023-10-19T08:50:31;11.25;;;6.45;;
72720;SDS011;60835;50.974;10.322;2023-10-19T08:53:00;8.15;;;4.85;;
72720;SDS011;60835;50.974;10.322;2023-10-19T08:55:29;6.75;;;4.55;;
72720;SDS011;60835;50.974;10.322;2023-10-19T08:58:17;6.80;;;4.45;;
72720;SDS011;60835;50.974;10.322;2023-10-19T09:00:47;8.27;;;4.78;;
72720;SDS011;60835;50.974;10.322;2023-10-19T09:03:23;9.93;;;5.57;;
72720;SDS011;60835;50.974;10.322;2023-10-19T09:05:52;8.65;;;5.22;;
72720;SDS011;60835;50.974;10.322;2023-10-19T09:08:20;10.45;;;6.50;;
72720;SDS011;60835;50.974;10.322;2023-10-19T09:10:49;13.15;;;6.15;;
72720;SDS011;60835;50.974;10.322;2023-10-19T09:13:19;8.93;;;5.30;;
72720;SDS011;60835;50.974;10.322;2023-10-19T09:15:46;10.02;;;5.63;;
72720;SDS011;60835;50.974;10.322;2023-10-19T09:18:21;8.45;;;5.85;;
72720;SDS011;60835;50.974;10.322;2023-10-19T09:20:50;8.65;;;5.53;;
72720;SDS011;60835;50.974;10.322;2023-10-19T09:23:37;9.15;;;6.00;;
72720;SDS011;60835;50.974;10.322;2023-10-19T09:26:04;8.75;;;5.90;;
72720;SDS011;60835;50.974;10.322;2023-10-19T09:28:34;9.43;;;5.40;;
72720;SDS011;60835;50.974;10.322;2023-10-19T09:31:02;8.40;;;5.60;;
72720;SDS011;60835;50.974;10.322;2023-10-19T09:33:33;9.50;;;5.80;;
72720;SDS011;60835;50.974;10.322;2023-10-19T09:36:01;9.15;;;5.80;;
72720;SDS011;60835;50.974;10.322;2023-10-19T09:38:30;9.35;;;5.65;;
72720;SDS011;60835;50.974;10.322;2023-10-19T09:40:59;9.02;;;5.32;;
72720;SDS011;60835;50.974;10.322;2023-10-19T09:43:30;12.43;;;6.38;;
72720;SDS011;60835;50.974;10.322;2023-10-19T09:46:02;8.90;;;5.25;;
72720;SDS011;60835;50.974;10.322;2023-10-19T09:48:45;9.00;;;6.00;;
72720;SDS011;60835;50.974;10.322;2023-10-19T09:51:14;7.60;;;5.20;;
72720;SDS011;60835;50.974;10.322;2023-10-19T09:53:44;10.90;;;5.55;;
72720;SDS011;60835;50.974;10.322;2023-10-19T09:56:17;7.30;;;4.82;;
72720;SDS011;60835;50.974;10.322;2023-10-19T09:58:48;7.90;;;4.95;;
72720;SDS011;60835;50.974;10.322;2023-10-19T10:01:17;6.00;;;4.43;;
72720;SDS011;60835;50.974;10.322;2023-10-19T10:06:16;6.65;;;4.80;;
72720;SDS011;60835;50.974;10.322;2023-10-19T10:08:58;6.47;;;4.65;;
72720;SDS011;60835;50.974;10.322;2023-10-19T10:11:27;7.90;;;5.22;;
72720;SDS011;60835;50.974;10.322;2023-10-19T10:13:55;6.15;;;4.18;;
72720;SDS011;60835;50.974;10.322;2023-10-19T10:16:25;6.00;;;4.18;;
72720;SDS011;60835;50.974;10.322;2023-10-19T10:18:59;10.20;;;6.78;;
72720;SDS011;60835;50.974;10.322;2023-10-19T10:21:27;6.90;;;5.03;;
72720;SDS011;60835;50.974;10.322;2023-10-19T10:23:57;6.90;;;3.97;;
72720;SDS011;60835;50.974;10.322;2023-10-19T10:26:29;6.95;;;3.83;;
72720;SDS011;60835;50.974;10.322;2023-10-19T10:29:11;5.60;;;3.80;;
72720;SDS011;60835;50.974;10.322;2023-10-19T10:31:46;6.70;;;4.13;;
72720;SDS011;60835;50.974;10.322;2023-10-19T10:37:06;5.55;;;3.80;;
72720;SDS011;60835;50.974;10.322;2023-10-19T10:39:35;6.95;;;3.05;;
72720;SDS011;60835;50.974;10.322;2023-10-19T10:42:03;3.78;;;2.80;;
72720;SDS011;60835;50.974;10.322;2023-10-19T10:44:49;4.43;;;3.17;;
72720;SDS011;60835;50.974;10.322;2023-10-19T10:47:19;5.95;;;2.90;;
72720;SDS011;60835;50.974;10.322;2023-10-19T10:49:49;5.30;;;2.85;;
72720;SDS011;60835;50.974;10.322;2023-10-19T10:52:30;4.03;;;2.63;;
72720;SDS011;60835;50.974;10.322;2023-10-19T10:55:10;6.80;;;3.28;;
72720;SDS011;60835;50.974;10.322;2023-10-19T10:57:39;5.10;;;3.33;;
72720;SDS011;60835;50.974;10.322;2023-10-19T11:02:59;5.75;;;2.88;;
72720;SDS011;60835;50.974;10.322;2023-10-19T11:05:27;4.43;;;2.85;;
72720;SDS011;60835;50.974;10.322;2023-10-19T11:10:35;4.95;;;3.13;;
72720;SDS011;60835;50.974;10.322;2023-10-19T11:13:05;7.75;;;3.80;;
72720;SDS011;60835;50.974;10.322;2023-10-19T11:15:34;6.95;;;3.33;;
72720;SDS011;60835;50.974;10.322;2023-10-19T11:18:01;4.35;;;3.13;;
72720;SDS011;60835;50.974;10.322;2023-10-19T11:20:28;5.35;;;3.47;;
72720;SDS011;60835;50.974;10.322;2023-10-19T11:22:56;4.25;;;2.92;;
72720;SDS011;60835;50.974;10.322;2023-10-19T11:25:27;5.00;;;2.83;;
72720;SDS011;60835;50.974;10.322;2023-10-19T11:27:58;3.10;;;2.80;;
72720;SDS011;60835;50.974;10.322;2023-10-19T11:30:30;5.90;;;3.40;;
72720;SDS011;60835;50.974;10.322;2023-10-19T11:32:58;4.30;;;2.92;;
72720;SDS011;60835;50.974;10.322;2023-10-19T11:35:28;4.28;;;3.00;;
72720;SDS011;60835;50.974;10.322;2023-10-19T11:38:00;7.45;;;4.43;;
72720;SDS011;60835;50.974;10.322;2023-10-19T11:40:28;5.22;;;3.65;;
72720;SDS011;60835;50.974;10.322;2023-10-19T11:42:55;5.15;;;2.85;;
72720;SDS011;60835;50.974;10.322;2023-10-19T11:45:27;4.07;;;2.80;;
72720;SDS011;60835;50.974;10.322;2023-10-19T11:47:55;8.27;;;3.17;;
72720;SDS011;60835;50.974;10.322;2023-10-19T11:50:23;5.65;;;3.33;;
72720;SDS011;60835;50.974;10.322;2023-10-19T11:52:51;5.30;;;3.00;;
72720;SDS011;60835;50.974;10.322;2023-10-19T11:55:19;5.43;;;3.03;;
72720;SDS011;60835;50.974;10.322;2023-10-19T11:57:47;6.43;;;3.20;;
72720;SDS011;60835;50.974;10.322;2023-10-19T12:00:14;5.00;;;3.00;;
72720;SDS011;60835;50.974;10.322;2023-10-19T12:02:48;6.95;;;3.53;;
72720;SDS011;60835;50.974;10.322;2023-10-19T12:05:16;5.65;;;3.85;;
72720;SDS011;60835;50.974;10.322;2023-10-19T12:07:42;6.00;;;3.17;;
72720;SDS011;60835;50.974;10.322;2023-10-19T12:10:11;5.55;;;3.42;;
72720;SDS011;60835;50.974;10.322;2023-10-19T12:12:42;5.88;;;3.75;;
72720;SDS011;60835;50.974;10.322;2023-10-19T12:17:52;10.52;;;3.38;;
72720;SDS011;60835;50.974;10.322;2023-10-19T12:20:21;5.50;;;3.47;;
72720;SDS011;60835;50.974;10.322;2023-10-19T12:22:50;7.30;;;3.78;;
72720;SDS011;60835;50.974;10.322;2023-10-19T12:25:23;4.55;;;3.55;;
72720;SDS011;60835;50.974;10.322;2023-10-19T12:28:08;7.68;;;3.30;;
72720;SDS011;60835;50.974;10.322;2023-10-19T12:30:40;5.10;;;3.15;;
72720;SDS011;60835;50.974;10.322;2023-10-19T12:33:08;4.97;;;3.33;;
72720;SDS011;60835;50.974;10.322;2023-10-19T12:35:39;4.80;;;2.60;;
72720;SDS011;60835;50.974;10.322;2023-10-19T12:38:18;3.45;;;2.17;;
72720;SDS011;60835;50.974;10.322;2023-10-19T12:40:48;3.70;;;2.75;;
72720;SDS011;60835;50.974;10.322;2023-10-19T12:43:17;5.38;;;2.90;;
72720;SDS011;60835;50.974;10.322;2023-10-19T12:45:49;5.50;;;3.20;;
72720;SDS011;60835;50.974;10.322;2023-10-19T12:48:24;4.50;;;2.85;;
72720;SDS011;60835;50.974;10.322;2023-10-19T12:50:59;4.90;;;2.80;;
72720;SDS011;60835;50.974;10.322;2023-10-19T12:53:33;2.70;;;2.50;;
72720;SDS011;60835;50.974;10.322;2023-10-19T12:55:59;6.72;;;2.92;;
72720;SDS011;60835;50.974;10.322;2023-10-19T12:58:27;2.63;;;2.10;;
72720;SDS011;60835;50.974;10.322;2023-10-19T13:00:55;3.72;;;2.63;;
72720;SDS011;60835;50.974;10.322;2023-10-19T13:03:22;4.90;;;2.58;;
72720;SDS011;60835;50.974;10.322;2023-10-19T13:05:50;4.25;;;3.10;;
72720;SDS011;60835;50.974;10.322;2023-10-19T13:08:17;4.03;;;3.05;;
72720;SDS011;60835;50.974;10.322;2023-10-19T13:10:47;3.25;;;2.63;;
72720;SDS011;60835;50.974;10.322;2023-10-19T13:13:15;4.07;;;3.03;;
72720;SDS011;60835;50.974;10.322;2023-10-19T13:15:43;4.93;;;2.95;;
72720;SDS011;60835;50.974;10.322;2023-10-19T13:18:11;4.45;;;3.58;;
72720;SDS011;60835;50.974;10.322;2023-10-19T13:21:00;4.03;;;3.10;;
72720;SDS011;60835;50.974;10.322;2023-10-19T13:23:35;6.55;;;3.67;;
72720;SDS011;60835;50.974;10.322;2023-10-19T13:26:02;9.05;;;3.42;;
72720;SDS011;60835;50.974;10.322;2023-10-19T13:28:44;5.35;;;3.20;;
72720;SDS011;60835;50.974;10.322;2023-10-19T13:31:11;4.00;;;2.92;;
72720;SDS011;60835;50.974;10.322;2023-10-19T13:33:40;6.65;;;3.20;;
72720;SDS011;60835;50.974;10.322;2023-10-19T13:36:08;4.75;;;2.85;;
72720;SDS011;60835;50.974;10.322;2023-10-19T13:38:35;4.32;;;2.92;;
72720;SDS011;60835;50.974;10.322;2023-10-19T13:41:05;4.78;;;2.70;;
72720;SDS011;60835;50.974;10.322;2023-10-19T13:43:38;5.05;;;3.50;;
72720;SDS011;60835;50.974;10.322;2023-10-19T13:46:06;4.60;;;3.10;;
72720;SDS011;60835;50.974;10.322;2023-10-19T13:48:33;4.47;;;3.20;;
72720;SDS011;60835;50.974;10.322;2023-10-19T13:50:59;4.60;;;2.80;;
72720;SDS011;60835;50.974;10.322;2023-10-19T13:53:27;4.93;;;2.95;;
72720;SDS011;60835;50.974;10.322;2023-10-19T13:55:53;7.18;;;3.13;;
72720;SDS011;60835;50.974;10.322;2023-10-19T13:58:20;4.88;;;2.80;;
72720;SDS011;60835;50.974;10.322;2023-10-19T14:00:47;4.85;;;3.13;;
72720;SDS011;60835;50.974;10.322;2023-10-19T14:03:15;5.22;;;2.80;;
72720;SDS011;60835;50.974;10.322;2023-10-19T14:05:43;4.13;;;3.30;;
72720;SDS011;60835;50.974;10.322;2023-10-19T14:08:16;3.90;;;2.80;;
72720;SDS011;60835;50.974;10.322;2023-10-19T14:10:44;5.50;;;2.95;;
72720;SDS011;60835;50.974;10.322;2023-10-19T14:13:11;7.85;;;2.67;;
72720;SDS011;60835;50.974;10.322;2023-10-19T14:15:39;4.47;;;2.92;;
72720;SDS011;60835;50.974;10.322;2023-10-19T14:18:07;5.78;;;3.20;;
72720;SDS011;60835;50.974;10.322;2023-10-19T14:20:35;3.63;;;2.83;;
72720;SDS011;60835;50.974;10.322;2023-10-19T14:23:05;8.18;;;3.38;;
72720;SDS011;60835;50.974;10.322;2023-10-19T14:25:38;4.63;;;3.38;;
72720;SDS011;60835;50.974;10.322;2023-10-19T14:28:09;5.90;;;3.78;;
72720;SDS011;60835;50.974;10.322;2023-10-19T14:30:37;7.95;;;4.13;;
72720;SDS011;60835;50.974;10.322;2023-10-19T14:33:04;7.10;;;4.13;;
72720;SDS011;60835;50.974;10.322;2023-10-19T14:35:35;5.43;;;3.42;;
72720;SDS011;60835;50.974;10.322;2023-10-19T14:38:05;6.47;;;3.72;;
72720;SDS011;60835;50.974;10.322;2023-10-19T14:40:35;4.30;;;3.33;;
72720;SDS011;60835;50.974;10.322;2023-10-19T14:43:02;8.98;;;4.93;;
72720;SDS011;60835;50.974;10.322;2023-10-19T14:45:30;6.88;;;4.55;;
72720;SDS011;60835;50.974;10.322;2023-10-19T14:47:57;5.70;;;4.20;;
72720;SDS011;60835;50.974;10.322;2023-10-19T14:50:29;7.20;;;4.32;;
72720;SDS011;60835;50.974;10.322;2023-10-19T14:52:56;9.50;;;4.28;;
72720;SDS011;60835;50.974;10.322;2023-10-19T14:55:23;7.10;;;4.25;;
72720;SDS011;60835;50.974;10.322;2023-10-19T14:57:51;7.25;;;4.03;;
72720;SDS011;60835;50.974;10.322;2023-10-19T15:00:20;9.95;;;5.80;;
72720;SDS011;60835;50.974;10.322;2023-10-19T15:02:53;7.40;;;4.47;;
72720;SDS011;60835;50.974;10.322;2023-10-19T15:05:29;9.63;;;4.50;;